Last 30 Days

Scotts Valley-South (Bella Vista)

Daily Data | America/Los_Angeles
as of 5/19/24 6:36 AM PDT
Date Daily Max Temp (°F) Time of Max Temp Daily Min Temp (°F) Time of Min Temp Daily Rain (In) Month Precip (In) Season Precip (In) Daily ETo (in) 7 Day ETo (in) Daily Solar Rad (Cal/cm2) Wind Spd (mph) Daily Max Wind (mph) Time of Max Wind Max Wind Dir (°) Dew Pt (°F) Max RH (%) Min RH (%) Hrs <= 32F (hrs) Hrs <= 28F (hrs) Hrs 70-85F (hrs) Hrs > 95F (hrs) Powdery Mildew Stress (pts) Storm Total (In) Max 1 Min Rain (In) Max 1 Min Rain Time Max 15 Min Rain (In) Max 15 Min Precip Time Max 60 Min Rain (In) Max 60 Min Rain Time MinBV Day (V)
5/18/24 84.2 1355 49.7 0606 0.00 1.13 33.32 0.225 1.55 640 3.3 17.3 1503 W | 271 49.2 96 21 0.0 0.0 11.15 0.00 70 - - - - - - - 12.6
5/17/24 86.0 1459 48.0 0538 0.00 1.13 33.32 0.211 1.55 631 2.1 12.9 1627 SW | 218 53.4 96 32 0.0 0.0 5.20 0.00 50 - - - - - - - 12.6
5/16/24 84.9 1247 49.5 0530 0.00 1.13 33.32 0.215 1.56 640 2.4 13.1 1501 S | 190 51.8 93 31 0.0 0.0 11.32 0.00 60 - - - - - - - 12.6
5/15/24 92.0 1453 49.1 0557 0.00 1.13 33.32 0.226 1.55 635 2.1 14.0 1721 W | 274 48.3 90 20 0.0 0.0 4.05 0.00 40 - - - - - - - 12.6
5/14/24 88.3 1647 46.8 0624 0.00 1.13 33.32 0.217 1.52 634 2.2 12.8 1532 S | 188 49.3 95 20 0.0 0.0 3.99 0.00 50 - - - - - - - 12.6
5/13/24 86.2 1608 42.6 0627 0.00 1.13 33.32 0.221 1.48 667 2.0 12.3 1931 WNW | 283 44.3 94 10 0.0 0.0 5.39 0.00 60 - - - - - - - 12.6
5/12/24 85.6 1449 44.7 0554 0.00 1.13 33.32 0.234 1.42 660 2.7 15.4 1648 WNW | 298 42.4 94 16 0.0 0.0 10.70 0.00 70 - - - - - - - 12.6
5/11/24 89.8 1613 44.5 0627 0.00 1.13 33.32 0.229 1.34 658 2.2 16.7 1748 NW | 314 42.2 94 10 0.0 0.0 3.60 0.00 50 - - - - - - - 12.6
5/10/24 85.8 1756 43.2 0553 0.00 1.13 33.32 0.214 1.17 657 1.8 12.3 1937 NW | 317 40.2 92 12 0.0 0.0 10.42 0.00 60 - - - - - - - 12.6
5/9/24 78.9 1717 43.6 0237 0.00 1.13 33.32 0.213 1.15 661 2.9 12.8 1224 SE | 133 36.3 83 17 0.0 0.0 8.78 0.00 40 - - - - - - - 12.6
5/8/24 76.3 1551 35.5 0623 0.00 1.13 33.32 0.198 1.14 654 2.1 10.1 1610 SE | 139 33.8 94 12 0.0 0.0 7.83 0.00 20 - - - - - - - 12.6
5/7/24 70.8 1619 35.6 0635 0.00 1.13 33.32 0.176 1.13 633 2.2 14.3 0125 WNW | 287 38.2 98 20 0.0 0.0 0.38 0.00 0 - - - - - - - 12.6
5/6/24 63.3 1523 33.4 0610 0.00 1.13 33.32 0.162 1.13 605 4.7 18.2 2048 WNW | 284 38.5 97 40 0.0 0.0 0.00 0.00 0 - - - - - - - 12.6
5/5/24 58.1 1552 35.4 0445 0.00 1.13 33.32 0.149 1.16 602 5.6 18.8 1523 W | 270 34.4 92 35 0.0 0.0 0.00 0.00 0 - - - - - - - 12.6
5/4/24 52.9 0149 39.4 0046 1.13 1.13 33.32 0.057 1.20 254 5.2 26.4 0704 NW | 314 40.7 93 60 0.0 0.0 0.00 0.00 0 1.13 0.01 1758 0.07 0654 0.23 0704 12.6
5/3/24 73.8 1533 40.2 0608 0.00 0.00 32.19 0.195 1.30 592 4.7 20.3 1629 NNW | 328 41.8 94 20 0.0 0.0 4.45 0.00 0 - - - - - - - 12.6
5/2/24 70.2 1411 49.9 0518 0.00 0.00 32.19 0.200 1.25 618 8.2 22.1 1620 NW | 312 43.8 79 41 0.0 0.0 0.05 0.00 0 - - - - - - - 12.6
5/1/24 73.6 1443 33.9 0625 0.00 0.00 32.19 0.194 1.18 617 3.9 17.9 1730 WNW | 297 35.0 94 19 0.0 0.0 2.56 0.00 10 - - - - - - - 12.6
4/30/24 67.7 1504 33.5 0623 0.00 0.95 32.19 0.179 1.11 619 3.9 18.2 1733 WNW | 287 36.4 97 24 0.0 0.0 0.00 0.00 20 - - - - - - - 12.6
4/29/24 67.1 1405 39.2 0059 0.00 0.95 32.19 0.185 1.07 604 6.8 21.7 1705 WNW | 298 36.7 91 22 0.0 0.0 0.00 0.00 30 - - - - - - - 12.6
4/28/24 70.3 1455 38.6 0553 0.00 0.95 32.19 0.195 1.08 609 5.9 21.4 1942 WNW | 299 40.2 97 25 0.0 0.0 0.14 0.00 40 - - - - - - - 12.6
4/27/24 67.0 1304 35.1 0548 0.00 0.95 32.19 0.159 1.08 529 4.4 18.5 1359 WNW | 282 40.7 97 33 0.0 0.0 0.00 0.00 50 - - - - - - - 12.6
4/26/24 61.9 1437 41.2 0022 0.00 0.95 32.19 0.144 1.14 553 6.7 23.2 1622 W | 266 42.6 94 47 0.0 0.0 0.00 0.00 60 - - - - - - - 12.6
4/25/24 63.0 1524 42.2 0622 0.00 0.95 32.19 0.121 1.20 391 5.8 20.0 1658 NW | 311 41.9 94 40 0.0 0.0 0.00 0.00 70 - - - - - - - 12.6
4/24/24 65.5 1519 48.5 0059 0.00 0.95 32.19 0.129 1.24 427 3.6 15.5 1836 W | 260 45.0 87 41 0.0 0.0 0.00 0.00 80 - - - - - - - 12.6
4/23/24 62.6 1555 45.0 0615 0.00 0.95 32.19 0.140 1.28 544 4.3 15.2 1443 SSW | 193 45.0 92 54 0.0 0.0 0.00 0.00 90 - - - - - - - 12.6
4/22/24 83.2 1627 43.3 0651 0.00 0.95 32.19 0.198 1.30 623 2.4 14.6 1740 WSW | 243 45.8 97 17 0.0 0.0 8.72 0.00 100 - - - - - - - 12.6
4/21/24 81.9 1522 40.1 0621 0.00 0.95 32.19 0.191 1.25 644 1.5 7.4 1258 SE | 127 43.1 96 9 0.0 0.0 8.31 0.00 80 - - - - - - - 12.6
4/20/24 75.2 1456 44.5 0320 0.00 0.95 32.19 0.221 1.12 644 3.8 16.9 1643 NW | 309 36.9 90 14 0.0 0.0 7.26 0.00 60 - - - - - - - 12.6
4/19/24 79.2 1447 42.7 0608 0.00 0.95 32.19 0.198 0.93 606 2.9 20.3 1725 NW | 304 44.1 97 18 0.0 0.0 8.15 0.00 40 - - - - - - - 12.6
Max 92.0 - 49.9 - 1.13 1.13 33.32 0.234 1.56 667 8.2 26.4 - - 53.4 98 60 0.0 0.0 11.32 0.00 - - - - - - - - 12.6
Avg - - - - - - - - - - 3.7 - - - 42.1 - - 0.0 0.0 4.08 0.00 - - - - - - - - -
Min 52.9 - 33.4 - 0.00 0.00 32.19 0.057 0.93 254 1.5 7.4 - - 33.8 79 9 0.0 0.0 0.00 0.00 - - - - - - - - 12.6
Total - - - - - - - - - - - - - - - - - 0.0 0.0 122.45 0.00 - - - - - - - - -